Terminal Aerodrome Forecast
Issued by NWS

Home | Current Version | Previous Version | Text Only | Print | Product List | Glossary On
Versions: 1 2 3 4 5 6 7 8 9 10 11 12 13
000
FTUS43 KICT 252328
TAFCNU
TAF
KCNU 252328Z 2600/2624 01020G30KT P6SM VCTS OVC050CB
      TEMPO 2600/2602 -TSRA
     FM260500 01015KT P6SM SCT070
     FM261700 36010KT P6SM SKC=

USA.gov is the U.S. government's official web portal to all federal, state and local government web resources and services.